Gaithersburg, Maryland
Current Conditions -  °F | °C
As of 11:15 AM on Thursday 23 Oct 2014 (Local Time) from KGAI Reporting Station
Scattered Clouds Scattered Clouds  
Wind Chill: 57°   Ceiling: Unl
Heat Index: 57°   Visibility: 10mi
Dew Point: 45°   Wind: 12mph
Humidity: 63%   Direction: 320°NW
Pressure: 29.93"   Gusts: 24mph
Location:  39.14°N, 77.19°W
Report Text: KGAI 231515Z 32010G21KT 10SM SCT035 14/07 A2993 RMK AO1
Loading
Personal Weather Stations






























Interactive Weather Map
Tropical Storm Tracking
New forecast layout! Learn more

10-Day Weather Forecast

Advertisements
Track Severe Weather on mobile